Latest Weather Observations for Bulman

IDD60801

Issued at 8:01 pm CST Sunday 25 September 2016 (issued every 30 minutes, with the page automatically refreshed every 10 minutes)

About weather observations | Map of weather stations | Latest weather observations for NT | Other Formats
Station Details ID: 014627 Name: BULMAN Lat: -13.67 Lon: 134.34 Height: 103.4 m
Data from the previous 72 hours. | See also: Recent months at Bulman
Date/Time
CST
Temp
°C
App
Temp
°C
Dew
Point
°C
Rel
Hum
%
Delta-T
°C
Wind Press
QNH
hPa
Press
MSL
hPa
Rain since
9am
mm
Dir  Spd
km/h
Gust
km/h
Spd
kts
Gust
kts
25/08:00pm 32.9 31.9 10.9 26 12.9 E 7 15 4 8 1008.6 1008.0 0.0
25/07:30pm 32.3 32.5 13.0 31 11.6 ESE 4 7 2 4 1008.2 1007.5 0.0
25/07:00pm 34.4 33.4 10.9 24 13.8 E 7 11 4 6 1007.8 1007.1 0.0
25/06:30pm 35.3 33.5 11.0 23 14.4 E 11 15 6 8 1007.4 1006.7 0.0
25/06:00pm 36.2 35.6 12.4 24 14.4 SE 7 13 4 7 1007.0 1006.3 0.0
25/05:30pm 36.2 35.2 11.1 22 14.9 SSE 7 11 4 6 1006.7 1006.0 0.0
25/05:00pm 37.2 34.3 8.1 17 16.6 ESE 13 20 7 11 1006.6 1005.9 0.0
25/04:30pm 37.7 35.7 10.1 19 16.3 ESE 11 19 6 10 1006.4 1005.7 0.0
25/04:00pm 38.3 37.5 12.8 22 15.6 SSE 9 20 5 11 1006.2 1005.6 0.0
25/03:30pm 38.4 37.6 12.9 22 15.7 E 9 22 5 12 1006.4 1005.7 0.0
25/03:00pm 37.7 36.3 12.3 22 15.5 SSW 11 22 6 12 1006.8 1006.1 0.0
25/02:30pm 37.6 36.4 12.9 23 15.2 S 11 17 6 9 1006.9 1006.2 0.0
25/02:00pm 37.1 35.8 12.5 23 14.9 ESE 11 20 6 11 1007.2 1006.5 0.0
25/01:30pm 37.2 36.7 13.9 25 14.5 NNE 9 15 5 8 1007.6 1006.9 0.0
25/01:00pm 36.1 35.3 13.0 25 14.1 NW 9 13 5 7 1008.0 1007.3 0.0
25/12:30pm 35.8 35.5 14.4 27 13.3 ENE 9 17 5 9 1008.7 1008.1 0.0
25/12:00pm 35.8 35.1 14.4 27 13.3 NNE 11 17 6 9 1009.2 1008.6 0.0
25/11:30am 34.5 34.8 15.9 33 11.8 NNW 9 13 5 7 1009.6 1009.0 0.0
25/11:00am 34.6 35.6 16.4 33 11.6 NW 6 9 3 5 1010.2 1009.6 0.0
25/10:30am 32.9 33.8 16.7 38 10.3 NW 7 11 4 6 1010.4 1009.8 0.0
25/10:00am 31.8 32.9 18.0 43 8.9 N 9 15 5 8 1010.6 1010.0 0.0
25/09:30am 31.0 32.7 18.4 47 8.2 NNW 7 11 4 6 1010.9 1010.3 0.0
25/09:00am 29.7 31.4 18.5 51 7.2 NNW 7 11 4 6 1011.0 1010.4 0.0
25/08:30am 28.0 29.8 18.7 57 6.0 NNW 7 11 4 6 1010.9 1010.3 0.0
25/08:00am 26.3 28.4 18.9 63 4.8 NNW 6 7 3 4 1010.7 1010.1 0.0
25/07:30am 24.5 27.3 19.6 74 3.2 N 4 7 2 4 1010.5 1009.9 0.0
25/07:00am 22.9 26.4 19.5 81 2.2 CALM 0 0 0 0 1010.1 1009.5 0.0
25/06:30am 22.0 25.3 19.0 83 1.9 CALM 0 0 0 0 1009.7 1009.1 0.0
25/06:00am 22.2 25.3 19.4 84 1.8 N 2 6 1 3 1009.5 1008.9 0.0
25/05:30am 22.1 25.0 19.1 83 1.9 WSW 2 7 1 4 1009.3 1008.7 0.0
25/05:00am 22.2 25.5 19.0 82 2.0 CALM 0 0 0 0 1008.9 1008.3 0.0
25/04:30am 22.5 25.6 18.7 79 2.4 CALM 0 0 0 0 1008.7 1008.1 0.0
25/04:00am 22.9 25.7 18.0 74 3.1 CALM 0 0 0 0 1008.6 1008.0 0.0
25/03:30am 23.2 25.9 17.7 71 3.4 CALM 0 0 0 0 1008.6 1008.0 0.0
25/03:00am 23.8 26.6 18.0 70 3.7 CALM 0 0 0 0 1008.6 1008.0 0.0
25/02:30am 24.2 26.2 17.0 64 4.5 NNE 2 6 1 3 1008.7 1008.1 0.0
25/02:00am 24.7 26.9 16.4 60 5.1 CALM 0 6 0 3 1009.0 1008.4 0.0
25/01:30am 25.8 25.7 14.9 51 6.6 NNW 9 11 5 6 1009.1 1008.5 0.0
25/01:00am 25.3 26.2 16.2 57 5.6 NNW 6 9 3 5 1009.4 1008.8 0.0
25/12:30am 25.9 26.6 15.6 53 6.3 N 6 7 3 4 1009.7 1009.1 0.0
25/12:00am 26.2 26.8 15.3 51 6.6 NNW 6 7 3 4 1009.9 1009.3 0.0
 
Date/Time
CST
Temp
°C
App
Temp
°C
Dew
Point
°C
Rel
Hum
%
Delta-T
°C
Wind Press
QNH
hPa
Press
MSL
hPa
Rain since
9am
mm
Dir  Spd
km/h
Gust
km/h
Spd
kts
Gust
kts
24/11:30pm 27.0 28.9 16.6 53 6.5 N 2 6 1 3 1010.1 1009.5 0.0
24/11:00pm 27.3 28.8 14.7 46 7.6 CALM 0 0 0 0 1010.2 1009.6 0.0
24/10:30pm 28.5 29.3 12.4 37 9.4 CALM 0 4 0 2 1010.1 1009.5 0.0
24/10:00pm 29.1 29.5 13.7 38 9.2 NE 4 9 2 5 1009.8 1009.2 0.0
24/09:30pm 29.8 29.4 12.3 34 10.3 NNE 6 11 3 6 1009.5 1008.9 0.0
24/09:00pm 30.7 30.0 12.1 32 11.0 ENE 7 17 4 9 1009.0 1008.4 0.0
24/08:30pm 31.3 30.4 12.6 31 11.1 E 9 20 5 11 1008.5 1007.9 0.0
24/08:00pm 29.0 31.5 18.1 51 7.0 S 2 6 1 3 1008.1 1007.4 0.0
24/07:30pm 29.9 32.5 17.4 47 8.0 CALM 0 6 0 3 1007.7 1007.0 0.0
24/07:00pm 31.3 32.2 14.0 35 10.5 SSE 2 6 1 3 1007.3 1006.6 0.0
24/06:30pm 33.2 33.3 13.8 31 11.9 SSE 6 7 3 4 1006.9 1006.2 0.0
24/06:00pm 35.2 34.4 10.9 23 14.3 SE 6 9 3 5 1006.7 1006.0 0.0
24/05:30pm 35.7 34.4 10.0 21 15.0 ESE 7 9 4 5 1006.5 1005.8 0.0
24/05:00pm 36.2 35.0 10.4 21 15.1 NE 7 11 4 6 1006.2 1005.6 0.0
24/04:30pm 36.2 34.3 8.9 19 15.7 ENE 9 15 5 8 1006.1 1005.5 0.0
24/04:00pm 36.7 35.4 10.1 20 15.6 ESE 7 17 4 9 1006.2 1005.6 0.0
24/03:30pm 36.6 35.3 11.4 22 15.1 SE 9 15 5 8 1006.5 1005.8 0.0
24/03:00pm 36.6 36.1 10.7 21 15.3 N 4 11 2 6 1006.8 1006.1 0.0
24/02:30pm 36.6 35.5 10.7 21 15.3 NW 7 13 4 7 1007.3 1006.6 0.0
24/02:00pm 35.5 34.4 10.5 22 14.7 ENE 7 13 4 7 1007.8 1007.1 0.0
24/01:30pm 35.1 33.7 10.9 23 14.3 NNE 9 15 5 8 1008.4 1007.7 0.0
24/01:00pm 35.7 34.8 11.4 23 14.4 E 7 11 4 6 1008.9 1008.3 0.0
24/12:30pm 34.7 33.4 9.9 22 14.4 E 7 15 4 8 1009.6 1009.0 0.0
24/12:00pm 34.1 32.3 10.7 24 13.7 NE 11 17 6 9 1010.3 1009.7 0.0
24/11:30am 34.0 33.4 12.4 27 13.0 NE 7 11 4 6 1010.8 1010.2 0.0
24/11:00am 33.0 32.7 11.5 27 12.7 NNW 4 9 2 5 1011.4 1010.8 0.0
24/10:30am 32.8 32.6 12.9 29 12.0 WNW 6 7 3 4 1011.8 1011.2 0.0
24/10:00am 31.4 31.7 14.5 35 10.4 NNW 6 11 3 6 1012.0 1011.4 0.0
24/09:30am 29.8 30.5 16.2 43 8.5 NW 7 11 4 6 1012.2 1011.6 0.0
24/09:00am 29.1 30.4 18.5 52 6.8 NNW 9 13 5 7 1012.3 1011.7 0.0
24/08:30am 27.9 29.2 20.2 63 5.1 NNW 13 17 7 9 1012.2 1011.6 0.0
24/08:00am 26.2 29.4 21.6 76 3.1 N 7 11 4 6 1011.9 1011.3 0.0
24/07:30am 25.1 29.1 20.6 76 3.0 CALM 0 0 0 0 1011.7 1011.1 0.0
24/07:00am 23.6 27.9 21.1 86 1.6 CALM 0 0 0 0 1011.1 1010.5 0.0
24/06:30am 23.1 27.1 20.6 86 1.6 CALM 0 0 0 0 1010.7 1010.1 0.0
24/06:00am 23.8 27.8 20.5 82 2.2 CALM 0 0 0 0 1010.6 1010.0 0.0
24/05:30am 23.8 27.8 20.5 82 2.2 CALM 0 0 0 0 1010.3 1009.7 0.0
24/05:00am 24.0 27.6 20.5 81 2.3 N 2 6 1 3 1009.9 1009.3 0.0
24/04:30am 23.8 26.9 20.3 81 2.3 N 4 7 2 4 1009.9 1009.3 0.0
24/04:00am 24.3 27.0 20.2 78 2.7 NW 6 7 3 4 1009.8 1009.2 0.0
24/03:30am 24.5 27.2 20.2 77 2.8 NW 6 7 3 4 1009.9 1009.3 0.0
24/03:00am 24.2 26.7 19.9 77 2.8 NNW 6 7 3 4 1009.9 1009.3 0.0
24/02:30am 24.6 27.0 19.7 74 3.2 NNW 6 7 3 4 1010.1 1009.5 0.0
24/02:00am 25.0 26.7 19.4 71 3.6 NNW 9 11 5 6 1010.4 1009.8 0.0
24/01:30am 25.0 27.2 19.6 72 3.5 NNW 7 9 4 5 1010.4 1009.8 0.0
24/01:00am 25.2 27.6 19.6 71 3.6 N 6 7 3 4 1010.4 1009.8 0.0
24/12:30am 25.2 27.5 19.8 72 3.5 N 7 9 4 5 1010.5 1009.9 0.0
24/12:00am 25.3 28.7 19.4 70 3.8 CALM 0 0 0 0 1010.7 1010.1 0.0
 
Date/Time
CST
Temp
°C
App
Temp
°C
Dew
Point
°C
Rel
Hum
%
Delta-T
°C
Wind Press
QNH
hPa
Press
MSL
hPa
Rain since
9am
mm
Dir  Spd
km/h
Gust
km/h
Spd
kts
Gust
kts
23/11:30pm 25.8 29.1 19.2 67 4.3 CALM 0 0 0 0 1010.8 1010.2 0.0
23/11:00pm 26.4 28.8 18.0 60 5.3 ENE 2 6 1 3 1010.7 1010.1 0.0
23/10:30pm 26.8 28.8 17.0 55 6.1 SE 2 7 1 4 1010.5 1009.9 0.0
23/10:00pm 27.6 28.2 15.3 47 7.5 ESE 6 9 3 5 1010.3 1009.7 0.0
23/09:30pm 28.1 28.3 14.3 42 8.3 SE 6 9 3 5 1010.1 1009.5 0.0
23/09:00pm 28.8 28.7 13.9 40 9.0 SE 7 11 4 6 1009.9 1009.3 0.0
23/08:30pm 29.4 28.8 13.6 38 9.5 SE 9 13 5 7 1009.6 1009.0 0.0
23/08:00pm 29.9 30.3 16.3 43 8.5 SE 9 15 5 8 1009.2 1008.6 0.0
23/07:30pm 30.8 30.8 17.1 43 8.7 ESE 13 20 7 11 1008.7 1008.1 0.0
23/07:00pm 31.5 31.3 16.6 40 9.4 ESE 13 19 7 10 1008.3 1007.6 0.0
23/06:30pm 32.6 31.1 14.2 32 11.3 ESE 15 24 8 13 1007.8 1007.1 0.0
23/06:00pm 34.1 33.3 14.1 30 12.3 SE 11 15 6 8 1007.3 1006.6 0.0
23/05:30pm 34.8 34.4 14.1 28 12.8 SE 9 13 5 7 1007.0 1006.3 0.0
23/05:00pm 35.0 33.5 13.2 27 13.3 SE 13 19 7 10 1006.9 1006.2 0.0
23/04:30pm 35.1 34.6 13.9 28 13.1 SE 9 19 5 10 1007.1 1006.4 0.0
23/04:00pm 35.4 35.0 14.1 28 13.2 ENE 9 20 5 11 1007.1 1006.4 0.0
23/03:30pm 35.3 34.7 13.5 27 13.4 NE 9 17 5 9 1007.2 1006.5 0.0
23/03:00pm 35.8 35.0 15.0 29 13.1 ESE 13 22 7 12 1007.7 1007.0 0.0
23/02:30pm 35.2 33.8 13.4 27 13.3 E 13 22 7 12 1008.3 1007.6 0.0
23/02:00pm 34.5 32.5 12.8 27 13.1 ENE 15 20 8 11 1008.7 1008.1 0.0
23/01:30pm 34.7 33.3 13.5 28 13.0 NE 13 24 7 13 1009.3 1008.7 0.0
23/01:00pm 34.0 32.4 12.9 28 12.7 NE 13 22 7 12 1010.0 1009.4 0.0
23/12:30pm 33.2 32.1 14.3 32 11.6 ENE 13 20 7 11 1010.8 1010.2 0.0
23/12:00pm 32.7 33.8 18.1 42 9.5 NNE 9 17 5 9 1011.5 1010.9 0.0
23/11:30am 31.8 31.5 17.3 42 9.3 E 15 26 8 14 1012.1 1011.5 0.0
23/11:00am 30.9 29.7 16.1 41 9.3 E 17 28 9 15 1012.7 1012.1 0.0
23/10:30am 31.3 29.7 14.9 37 10.1 ENE 17 28 9 15 1012.9 1012.3 0.0
23/10:00am 30.3 30.6 17.0 44 8.4 NE 11 20 6 11 1013.1 1012.5 0.0
23/09:30am 28.6 31.7 21.4 65 4.8 N 7 13 4 7 1013.3 1012.7 0.0
23/09:00am 27.1 30.2 21.4 71 3.8 NNE 7 13 4 7 1013.4 1012.8 0.0
23/08:30am 26.6 30.4 22.7 79 2.6 ENE 7 9 4 5 1013.4 1012.8 0.0
23/08:00am 25.6 30.1 22.9 85 1.8 NNE 4 7 2 4 1013.2 1012.6 0.0
23/07:30am 24.3 29.4 22.7 91 1.1 CALM 0 0 0 0 1012.9 1012.3 0.0
23/07:00am 22.7 27.4 22.0 96 0.5 CALM 0 0 0 0 1012.6 1012.0 0.0
23/06:30am 22.3 26.8 21.6 96 0.5 CALM 0 0 0 0 1012.3 1011.7 0.0
23/06:00am 22.3 26.8 21.5 95 0.5 CALM 0 0 0 0 1012.0 1011.4 0.0
23/05:30am 22.3 26.8 21.5 95 0.5 CALM 0 0 0 0 1011.7 1011.1 0.0
23/05:00am 22.4 26.8 21.4 94 0.7 CALM 0 0 0 0 1011.1 1010.5 0.0
23/04:30am 22.6 27.1 21.6 94 0.7 CALM 0 0 0 0 1010.9 1010.3 0.0
23/04:00am 22.7 27.3 21.7 94 0.7 CALM 0 0 0 0 1010.8 1010.2 0.0
23/03:30am 22.9 27.5 21.7 93 0.8 CALM 0 0 0 0 1010.7 1010.1 0.0
23/03:00am 23.1 27.8 21.9 93 0.8 CALM 0 0 0 0 1011.0 1010.4 0.0
23/02:30am 23.3 28.0 21.9 92 0.9 CALM 0 0 0 0 1011.3 1010.7 0.0
23/02:00am 23.7 28.5 22.1 91 1.1 CALM 0 0 0 0 1011.7 1011.1 0.0
23/01:30am 24.1 28.0 21.8 87 1.5 N 4 7 2 4 1011.8 1011.2 0.0
23/01:00am 25.0 28.6 22.1 84 1.9 NNE 6 9 3 5 1012.1 1011.5 0.0
23/12:30am 25.1 28.7 22.0 83 2.1 ENE 6 9 3 5 1012.3 1011.7 0.0
23/12:00am 25.2 30.0 22.1 83 2.1 CALM 0 6 0 3 1012.4 1011.8 0.0
 
Date/Time
CST
Temp
°C
App
Temp
°C
Dew
Point
°C
Rel
Hum
%
Delta-T
°C
Wind Press
QNH
hPa
Press
MSL
hPa
Rain since
9am
mm
Dir  Spd
km/h
Gust
km/h
Spd
kts
Gust
kts
22/11:30pm 25.9 30.1 21.8 78 2.7 E 2 7 1 4 1012.4 1011.8 0.0
22/11:00pm 26.3 29.8 21.9 77 3.0 E 6 9 3 5 1012.5 1011.9 0.0
22/10:30pm 26.7 30.0 21.9 75 3.2 E 7 13 4 7 1012.6 1012.0 0.0
22/10:00pm 27.1 30.6 22.1 74 3.4 E 7 13 4 7 1012.4 1011.8 0.0
22/09:30pm 27.4 30.7 21.9 72 3.7 ESE 7 13 4 7 1012.2 1011.6 0.0
22/09:00pm 27.7 30.7 22.0 71 3.8 ESE 9 13 5 7 1012.1 1011.5 0.0
22/08:30pm 27.9 30.4 21.7 69 4.2 ESE 11 19 6 10 1012.0 1011.4 0.0

Other Formats:

Comma delimited format used in spreadsheet applications
http://www.bom.gov.au/fwo/IDD60801/IDD60801.94143.axf

JavaScript Object Notation format (JSON) in row-major order
http://www.bom.gov.au/fwo/IDD60801/IDD60801.94143.json